createdAt,value
2018-02-17T10:36:39.377Z,101392.15
2018-02-17T10:42:30.605Z,101397.77
2018-02-17T11:02:58.620Z,101398.61
2018-02-17T11:05:25.268Z,101402.45
2018-02-17T11:07:52.005Z,101401.09
2018-02-17T11:10:18.848Z,101394.05
2018-02-17T11:12:45.620Z,101401.78
2018-02-17T11:15:12.271Z,101388.63
2018-02-17T11:17:38.944Z,101387.24
2018-02-17T11:20:05.537Z,101388.95
2018-02-17T11:22:32.202Z,101390.13
2018-02-17T11:24:58.941Z,101386.11
2018-02-17T11:27:25.561Z,101382.13
2018-02-17T11:29:52.262Z,101386.81
2018-02-17T11:32:18.861Z,101380.59
2018-02-17T11:34:45.429Z,101373.08
2018-02-17T11:37:12.064Z,101375.64
2018-02-17T11:39:38.724Z,101376.85
2018-02-17T11:42:05.291Z,101381.92
2018-02-17T11:44:31.899Z,101378.88
2018-02-17T11:46:58.477Z,101376.66
2018-02-17T11:49:25.062Z,101377.97
2018-02-17T11:51:53.776Z,101376.52
2018-02-17T11:54:20.479Z,101375.98
2018-02-17T11:56:47.803Z,101369.81
2018-02-17T11:59:14.806Z,101372.87
2018-02-17T12:01:42.176Z,101376.33
2018-02-17T12:04:08.808Z,101367.53
2018-02-17T12:06:35.652Z,101371.39
2018-02-17T12:09:02.338Z,101373.53
2018-02-17T12:11:28.983Z,101370.41
2018-02-17T12:13:55.917Z,101367.80
2018-02-17T12:16:22.554Z,101367.80
2018-02-17T12:18:49.183Z,101367.32
2018-02-17T12:21:16.051Z,101373.03
2018-02-17T12:23:43.848Z,101373.43
2018-02-17T12:26:10.494Z,101376.41
2018-02-17T12:28:37.809Z,101378.59
2018-02-17T12:31:04.397Z,101380.23
2018-02-17T12:33:31.572Z,101383.55
2018-02-17T12:36:00.269Z,101385.73
2018-02-17T12:38:27.581Z,101388.67
2018-02-17T12:40:54.937Z,101388.97
2018-02-17T12:43:21.552Z,101393.22
2018-02-17T12:45:48.207Z,101392.59
2018-02-17T12:48:14.940Z,101394.55
2018-02-17T12:50:41.556Z,101383.11
2018-02-17T12:53:08.149Z,101392.64
2018-02-17T12:55:34.782Z,101387.91
2018-02-17T12:58:01.362Z,101383.86
2018-02-17T13:00:27.955Z,101384.66
2018-02-17T13:02:54.524Z,101378.98
2018-02-17T13:05:21.085Z,101369.67
2018-02-17T13:07:47.717Z,101375.58
2018-02-17T13:10:14.368Z,101375.59
2018-02-17T13:12:41.240Z,101370.34
2018-02-17T13:15:07.921Z,101378.52
2018-02-17T13:17:34.983Z,101375.29
2018-02-17T13:20:02.329Z,101377.12
2018-02-17T13:22:29.038Z,101378.43
2018-02-17T13:24:56.368Z,101377.17
2018-02-17T13:27:23.240Z,101374.62
2018-02-17T13:29:49.851Z,101372.80
2018-02-17T13:32:16.490Z,101374.95
2018-02-17T13:34:51.499Z,101370.73
2018-02-17T13:37:18.107Z,101377.25
2018-02-17T13:39:45.448Z,101382.41
2018-02-17T13:42:13.381Z,101382.28
2018-02-17T13:44:40.274Z,101386.52
2018-02-17T13:47:07.724Z,101388.84
2018-02-17T13:49:34.319Z,101389.63
2018-02-17T13:52:01.967Z,101387.87
2018-02-17T13:54:29.908Z,101392.20
2018-02-17T13:56:58.668Z,101396.57
2018-02-17T13:59:26.111Z,101390.41
2018-02-17T14:02:00.979Z,101398.23
2018-02-17T14:04:28.370Z,101392.55
2018-02-17T14:06:54.924Z,101390.48
2018-02-17T14:09:21.503Z,101387.73
2018-02-17T14:11:48.098Z,101394.88
2018-02-17T14:14:14.771Z,101389.09
2018-02-17T14:16:41.408Z,101401.82
2018-02-17T14:19:12.495Z,101398.59
2018-02-17T14:21:46.041Z,101403.45
2018-02-17T14:24:14.185Z,101406.16
2018-02-17T14:26:42.831Z,101404.41
2018-02-17T14:29:10.889Z,101412.02
2018-02-17T14:31:38.848Z,101414.77
2018-02-17T14:34:06.802Z,101408.65
2018-02-17T14:36:40.606Z,101413.59
2018-02-17T14:39:09.196Z,101417.52
2018-02-17T14:41:36.351Z,101420.63
2018-02-17T14:44:04.501Z,101412.27
2018-02-17T14:46:33.503Z,101419.83
2018-02-17T14:49:04.038Z,101418.56
2018-02-17T14:51:33.256Z,101415.59
2018-02-17T14:54:15.892Z,101414.70
2018-02-17T14:56:44.962Z,101419.99
2018-02-17T14:59:13.461Z,101419.16
2018-02-17T15:01:42.215Z,101412.13
2018-02-17T15:04:10.597Z,101407.32
2018-02-17T15:06:38.221Z,101411.66
2018-02-17T15:09:07.425Z,101417.84
2018-02-17T15:11:35.445Z,101415.23
2018-02-17T15:14:04.308Z,101411.73
2018-02-17T15:16:33.650Z,101418.33
2018-02-17T15:19:02.009Z,101418.41
2018-02-17T15:21:30.749Z,101416.23
2018-02-17T15:23:59.265Z,101418.77
2018-02-17T15:26:27.391Z,101418.45
2018-02-17T15:28:56.140Z,101426.31
2018-02-17T15:31:24.829Z,101419.29
2018-02-17T15:33:57.821Z,101416.34
2018-02-17T15:36:26.825Z,101422.63
2018-02-17T15:38:53.619Z,101427.35
2018-02-17T15:41:21.252Z,101427.39
2018-02-17T15:43:49.279Z,101434.86
2018-02-17T15:46:19.187Z,101434.81
2018-02-17T15:48:48.542Z,101430.41
2018-02-17T15:51:17.565Z,101433.94
2018-02-17T15:53:46.257Z,101434.38
2018-02-17T15:56:14.554Z,101432.24
2018-02-17T15:58:41.846Z,101424.93
2018-02-17T16:01:08.644Z,101426.75
2018-02-17T16:03:37.127Z,101425.92
2018-02-17T16:06:06.058Z,101431.67
2018-02-17T16:08:33.814Z,101435.61
2018-02-17T16:11:02.098Z,101434.80
2018-02-17T16:13:31.136Z,101443.22
2018-02-17T16:16:01.626Z,101446.28
2018-02-17T16:18:29.532Z,101448.05
2018-02-17T16:20:58.187Z,101452.57
2018-02-17T16:23:27.061Z,101446.05
2018-02-17T16:25:55.820Z,101450.97
2018-02-17T16:28:26.280Z,101457.22
2018-02-17T16:30:55.984Z,101449.39
2018-02-17T16:33:39.400Z,101450.00
2018-02-17T16:36:09.720Z,101463.16
2018-02-17T16:38:38.457Z,101462.39
2018-02-17T16:41:07.268Z,101464.13
2018-02-17T16:43:35.153Z,101468.66
2018-02-17T16:46:06.416Z,101470.47
2018-02-17T16:48:55.197Z,101470.09
2018-02-17T16:51:24.602Z,101467.16
2018-02-17T16:53:52.982Z,101472.09
2018-02-17T16:56:21.067Z,101477.94
2018-02-17T16:58:48.811Z,101475.52
2018-02-17T17:01:16.172Z,101480.12
2018-02-17T17:03:43.691Z,101484.13
2018-02-17T17:06:11.679Z,101495.20
2018-02-17T17:08:39.575Z,101497.76
2018-02-17T17:11:07.319Z,101496.20
2018-02-17T17:13:35.949Z,101505.64
2018-02-17T17:16:03.393Z,101505.89
2018-02-17T17:18:32.826Z,101504.53
2018-02-17T17:21:03.511Z,101508.98
2018-02-17T17:23:33.295Z,101509.86
2018-02-17T17:26:01.184Z,101518.83
2018-02-17T17:28:29.681Z,101518.12
2018-02-17T17:30:58.685Z,101519.50
2018-02-17T17:33:26.869Z,101522.48
2018-02-17T17:36:01.675Z,101527.48
2018-02-17T17:38:29.714Z,101526.83
2018-02-17T17:43:31.888Z,101534.59
2018-02-17T17:46:01.615Z,101535.23
2018-02-17T17:48:29.726Z,101545.05
2018-02-17T17:50:57.679Z,101551.98
2018-02-17T17:53:25.835Z,101546.54
2018-02-17T17:55:55.410Z,101553.30
2018-02-17T17:58:24.192Z,101557.76
2018-02-17T18:00:52.750Z,101566.45
2018-02-17T18:03:23.068Z,101566.96
2018-02-17T18:05:52.410Z,101567.77
2018-02-17T18:08:20.945Z,101572.48
2018-02-17T18:10:50.549Z,101576.17
2018-02-17T18:13:20.266Z,101572.47
2018-02-17T18:15:49.039Z,101577.94
2018-02-17T18:18:18.588Z,101573.38
2018-02-17T18:20:48.552Z,101582.34
2018-02-17T18:23:15.920Z,101578.39
2018-02-17T18:25:45.293Z,101581.35
2018-02-17T18:28:14.025Z,101590.02
2018-02-17T18:30:43.469Z,101576.52
2018-02-17T18:33:12.399Z,101587.03
2018-02-17T18:35:42.369Z,101582.73
2018-02-17T18:38:12.717Z,101584.47
2018-02-17T18:40:42.517Z,101590.59
2018-02-17T18:43:10.089Z,101585.80
2018-02-17T18:45:38.482Z,101592.80
2018-02-17T18:48:07.584Z,101585.39
2018-02-17T18:50:35.603Z,101585.86
2018-02-17T18:53:04.369Z,101589.30
2018-02-17T18:55:32.332Z,101591.92
2018-02-17T18:58:01.772Z,101592.34
2018-02-17T19:00:30.536Z,101591.42
2018-02-17T19:03:00.577Z,101594.81
2018-02-17T19:05:30.563Z,101590.96
2018-02-17T19:07:59.445Z,101596.25
2018-02-17T19:10:29.186Z,101596.66
2018-02-17T19:12:59.427Z,101599.70
2018-02-17T19:15:29.966Z,101598.80
2018-02-17T19:17:58.683Z,101599.23
2018-02-17T19:20:28.182Z,101596.25
2018-02-17T19:22:59.570Z,101594.05
2018-02-17T19:25:28.611Z,101584.97
2018-02-17T19:27:59.242Z,101585.82
2018-02-17T19:30:29.538Z,101585.85
2018-02-17T19:32:58.226Z,101580.62
2018-02-17T19:35:29.142Z,101572.34
2018-02-17T19:38:01.644Z,101578.39
2018-02-17T19:40:30.876Z,101574.92
2018-02-17T19:43:00.670Z,101583.69
2018-02-17T19:45:32.004Z,101582.36
2018-02-17T19:48:04.224Z,101591.00
2018-02-17T20:06:02.257Z,101604.47
2018-02-17T20:08:32.301Z,101605.14
2018-02-17T20:11:04.335Z,101619.20
2018-02-17T20:13:33.406Z,101624.42
2018-02-17T20:16:03.884Z,101625.33
2018-02-17T20:18:34.418Z,101625.27
2018-02-17T20:21:04.463Z,101620.97
2018-02-17T20:23:35.032Z,101625.75
2018-02-17T20:26:09.894Z,101629.21
2018-02-17T20:28:38.839Z,101632.69
2018-02-17T20:31:10.097Z,101626.45
2018-02-17T20:33:40.075Z,101640.84
2018-02-17T20:36:37.125Z,101632.77
2018-02-17T20:39:11.500Z,101644.25
2018-02-17T20:41:41.814Z,101648.69
2018-02-17T20:46:54.541Z,101652.22
2018-02-17T20:49:24.747Z,101648.71
2018-02-17T20:51:59.463Z,101657.38
2018-02-17T20:54:34.926Z,101660.91
2018-02-17T20:57:06.037Z,101672.03
2018-02-17T21:12:15.103Z,101678.56
2018-02-17T21:17:26.828Z,101674.70
2018-02-17T21:20:02.888Z,101678.88
